ADDS METAR Data INFO
IDs: Format: Raw Decoded Include TAF

Data at: 2251 UTC 11 Dec 2017

KIPL 112153Z AUTO 31006KT 10SM CLR 27/M15 A3016 RMK AO2 SLP214 T02671150 TSNO
KIPL 112053Z AUTO 01006KT 10SM CLR 27/M16 A3017 RMK AO2 SLP216 T02671156 58024 TSNO
KIPL 111953Z AUTO 35005KT 10SM CLR 26/M13 A3019 RMK AO2 SLP223 T02611133 TSNO
KIPL 111853Z AUTO 31004KT 10SM CLR 25/M08 A3022 RMK AO2 SLP233 T02501078 TSNO
KIPL 111753Z AUTO 29004KT 10SM CLR 22/M08 A3024 RMK AO2 SLP240 T02221078 10222 20100 51013 TSNO
KIPL 111653Z AUTO 27004KT 10SM CLR 17/M06 A3023 RMK AO2 SLP238 T01671056 TSNO
KIPL 111553Z AUTO 25005KT 10SM CLR 13/M07 A3022 RMK AO2 SLP233 T01281072 TSNO
KIPL 111453Z AUTO 26005KT 10SM CLR 10/M07 A3020 RMK AO2 SLP227 T01001067 53011 TSNO
KIPL 111353Z AUTO 28005KT 10SM CLR 11/M08 A3019 RMK AO2 SLP224 T01111078 TSNO
KIPL 111253Z AUTO 26007KT 10SM CLR 11/M06 A3018 RMK AO2 SLP218 T01061056 TSNO
KIPL 111153Z AUTO 23003KT 10SM CLR 11/M06 A3017 RMK AO2 SLP217 T01111056 10144 20106 57002 TSNO
KIPL 111053Z AUTO 25004KT 10SM CLR 11/M07 A3017 RMK AO2 SLP218 T01111067 TSNO
KIPL 110953Z AUTO 29005KT 10SM CLR 12/M07 A3017 RMK AO2 SLP217 T01171072 TSNO
KIPL 110853Z AUTO 00000KT 10SM CLR 11/M07 A3018 RMK AO2 SLP218 T01061067 58001 TSNO
KIPL 110753Z AUTO 28004KT 10SM CLR 13/M09 A3018 RMK AO2 SLP219 T01331089 402560083 TSNO
KIPL 110653Z AUTO 26005KT 10SM CLR 13/M09 A3019 RMK AO2 SLP221 T01331094 TSNO
KIPL 110553Z AUTO 24008KT 10SM CLR 14/M09 A3018 RMK AO2 SLP220 T01391094 10222 20117 53006 TSNO
KIPL 110453Z AUTO 26007KT 10SM CLR 13/M06 A3017 RMK AO2 SLP216 T01281061 TSNO
KIPL 110353Z AUTO 25006KT 10SM CLR 15/M06 A3017 RMK AO2 SLP215 T01501061 TSNO
KIPL 110253Z AUTO 26003KT 10SM CLR 16/M04 A3016 RMK AO2 SLP213 T01561039 53009 TSNO
KIPL 110153Z AUTO 24004KT 10SM CLR 17/M04 A3016 RMK AO2 SLP211 T01721039 TSNO
KIPL 110053Z AUTO 29003KT 10SM CLR 19/01 A3014 RMK AO2 SLP205 T01890006 TSNO
KIPL 102353Z AUTO 33004KT 10SM CLR 22/M03 A3014 RMK AO2 SLP205 T02221028 10256 20183 56008 TSNO
KIPL 102253Z AUTO 34005KT 10SM CLR 24/M03 A3014 RMK AO2 SLP206 T02441033 TSNO
KIPL 102153Z AUTO 33006KT 10SM CLR 24/M07 A3015 RMK AO2 SLP210 T02441067 TSNO
KIPL 102053Z AUTO 35009KT 10SM CLR 25/M09 A3016 RMK AO2 SLP213 T02501089 58030 TSNO
KIPL 101953Z AUTO 30006KT 10SM CLR 24/M08 A3020 RMK AO2 SLP225 T02391083 TSNO
KIPL 101853Z AUTO 28005KT 10SM CLR 21/M03 A3023 RMK AO2 SLP235 T02111033 TSNO
KIPL 101753Z AUTO VRB03KT 10SM CLR 18/M07 A3025 RMK AO2 SLP243 T01831067 10183 20083 50005 TSNO
KIPL 101653Z AUTO 26004KT 10SM CLR 14/M04 A3025 RMK AO2 SLP244 T01441044 TSNO
KIPL 101553Z AUTO 26003KT 10SM CLR 11/M07 A3024 RMK AO2 SLP240 T01111072 TSNO
KIPL 101453Z AUTO 26006KT 10SM CLR 09/M07 A3023 RMK AO2 SLP238 T00891072 53009 TSNO
KIPL 101353Z AUTO 23005KT 10SM CLR 09/M07 A3022 RMK AO2 SLP235 T00941072 TSNO
KIPL 101253Z AUTO 27004KT 10SM CLR 08/M07 A3021 RMK AO2 SLP230 T00831067 TSNO
KIPL 101153Z AUTO 26006KT 10SM CLR 09/M07 A3021 RMK AO2 SLP229 T00891072 10100 20083 50001 TSNO
KIPL 101053Z AUTO 27007KT 10SM CLR 09/M08 A3021 RMK AO2 SLP230 T00891078 TSNO